Banks, Alabama
Current Conditions -  °F | °C
As of 9:53 AM on Thursday 23 Oct 2014 (Local Time) from KTOI Reporting Station
Clear Clear  
Wind Chill: 57°   Ceiling: Unl
Heat Index: 57°   Visibility: 10mi
Dew Point: 46°   Wind: 5mph
Humidity: 67%   Direction: 100°E
Pressure: 30.14"   Gusts: NA
Location:  31.82°N, 85.84°W
Report Text: KTOI 231453Z AUTO 10004KT 10SM CLR 14/08 A3014 RMK AO2 SLP205 T01390078 50004
Loading
Personal Weather Stations






























Interactive Weather Map
Tropical Storm Tracking
New forecast layout! Learn more

10-Day Weather Forecast

Advertisements
Track Severe Weather on mobile